Time;durP1;ratioP1;P1;durP2;ratioP2;P2;SDS_P1;SDS_P2;PMS_P1;PMS_P2;Temp;Humidity;BMP_temperature;BMP_pressure;BME280_temperature;BME280_humidity;BME280_pressure;Samples;Min_cycle;Max_cycle;Signal;HPM_P1;HPM_P2
2023/08/29 00:00:36;;;;;;;5.00;3.40;;;;;;;30.73;36.67;100001.74;102767;1291;61494;-82
2023/08/29 00:03:03;;;;;;;6.00;3.40;;;;;;;30.73;36.74;100000.33;102763;1291;62481;-82
2023/08/29 00:05:30;;;;;;;5.50;3.60;;;;;;;30.73;36.81;99996.69;102815;1291;61923;-82
2023/08/29 00:07:56;;;;;;;4.60;3.30;;;;;;;30.72;36.68;99997.45;102793;1291;61694;-82
2023/08/29 00:10:22;;;;;;;4.70;3.50;;;;;;;30.72;36.77;100003.26;102672;1291;62606;-82
2023/08/29 00:12:48;;;;;;;4.80;3.30;;;;;;;30.72;36.78;100007.48;102797;1290;61398;-82
2023/08/29 00:15:13;;;;;;;5.40;3.60;;;;;;;30.72;36.78;100008.41;102746;1291;61529;-82
2023/08/29 00:17:39;;;;;;;5.70;3.30;;;;;;;30.72;36.75;100014.74;102762;1291;61901;-82
2023/08/29 00:20:05;;;;;;;5.50;3.50;;;;;;;30.72;36.68;100011.48;102773;1291;65077;-82
2023/08/29 00:22:31;;;;;;;5.50;3.40;;;;;;;30.72;36.68;100011.14;102724;1293;61623;-82
2023/08/29 00:24:58;;;;;;;4.50;3.60;;;;;;;30.72;36.81;100006.56;102759;1291;61476;-82
2023/08/29 00:27:24;;;;;;;5.30;3.50;;;;;;;30.72;36.88;100007.86;102734;1296;61501;-82
2023/08/29 00:29:49;;;;;;;5.90;3.80;;;;;;;30.71;36.82;100002.99;102736;1291;61371;-82
2023/08/29 00:32:15;;;;;;;4.70;3.50;;;;;;;30.72;36.79;100003.34;102721;1293;61444;-82
2023/08/29 00:34:40;;;;;;;5.60;3.70;;;;;;;30.72;36.84;100005.55;102733;1291;61502;-82
2023/08/29 00:37:06;;;;;;;4.70;3.50;;;;;;;30.71;36.78;100006.47;102809;1290;62057;-82
2023/08/29 00:39:32;;;;;;;4.90;3.30;;;;;;;30.71;36.75;100004.88;102750;1291;61287;-83
2023/08/29 00:41:58;;;;;;;6.00;3.50;;;;;;;30.71;36.82;100003.08;102781;1290;61404;-83
2023/08/29 00:44:24;;;;;;;5.20;3.50;;;;;;;30.71;36.81;100003.25;102700;1291;61413;-83
2023/08/29 00:46:50;;;;;;;5.60;3.50;;;;;;;30.71;36.91;100001.48;102766;1291;61930;-83
2023/08/29 00:49:18;;;;;;;5.90;3.40;;;;;;;30.71;36.79;100000.57;102744;1291;61596;-83
2023/08/29 00:51:43;;;;;;;4.70;3.30;;;;;;;30.71;36.91;100000.77;102693;1295;61290;-83
2023/08/29 00:54:09;;;;;;;4.50;3.10;;;;;;;30.71;36.88;100005.50;102721;1291;61418;-83
2023/08/29 00:56:35;;;;;;;6.10;3.90;;;;;;;30.71;36.94;100007.30;103068;1291;61405;-81
2023/08/29 00:59:01;;;;;;;5.10;3.50;;;;;;;30.71;36.84;100009.48;102689;1291;61456;-83
2023/08/29 01:01:27;;;;;;;5.30;3.30;;;;;;;30.71;36.91;100012.60;102766;1291;61377;-83
2023/08/29 01:03:53;;;;;;;5.50;3.70;;;;;;;30.70;36.87;100014.98;102739;1291;63867;-83
2023/08/29 01:06:18;;;;;;;4.80;3.40;;;;;;;30.70;36.87;100015.14;102701;1291;62500;-82
2023/08/29 01:08:44;;;;;;;5.10;3.60;;;;;;;30.70;36.87;100014.64;102705;1291;61341;-81
2023/08/29 01:11:19;;;;;;;5.40;3.80;;;;;;;30.70;36.96;100014.09;102781;1290;61710;-81
2023/08/29 01:14:00;;;;;;;5.90;3.70;;;;;;;30.70;36.94;100008.36;102813;1290;63681;-81
2023/08/29 01:16:30;;;;;;;4.70;3.10;;;;;;;30.70;36.97;100000.17;102800;1291;65847;-81
2023/08/29 01:18:56;;;;;;;5.10;3.70;;;;;;;30.70;36.97;100003.23;102921;1290;61322;-82
2023/08/29 01:21:45;;;;;;;5.50;3.60;;;;;;;30.70;37.00;100002.35;102761;1291;61430;-82
2023/08/29 01:24:15;;;;;;;5.70;3.60;;;;;;;30.70;36.91;99998.36;102757;1296;63600;-82
2023/08/29 01:26:41;;;;;;;6.10;3.40;;;;;;;30.69;36.90;99997.52;102727;1296;65694;-82
2023/08/29 01:29:06;;;;;;;6.10;3.60;;;;;;;30.69;36.80;100000.25;102761;1296;61450;-82
2023/08/29 01:31:32;;;;;;;5.80;3.80;;;;;;;30.69;36.83;100003.14;102637;1291;62229;-82
2023/08/29 01:33:58;;;;;;;5.30;3.70;;;;;;;30.69;36.99;100000.15;102702;1291;61398;-82
2023/08/29 01:36:39;;;;;;;4.80;3.60;;;;;;;30.69;37.04;99996.98;102791;1296;61299;-82
2023/08/29 01:39:05;;;;;;;5.40;3.70;;;;;;;30.69;37.12;100000.83;102672;1291;65875;-81
2023/08/29 01:41:32;;;;;;;5.60;3.80;;;;;;;30.69;36.87;99997.02;102765;1291;61402;-81
2023/08/29 01:43:57;;;;;;;5.80;3.70;;;;;;;30.69;37.08;99996.48;102777;1291;62530;-81
2023/08/29 01:46:23;;;;;;;5.60;3.30;;;;;;;30.69;37.12;99994.87;102728;1296;61488;-81
2023/08/29 01:48:49;;;;;;;4.80;3.60;;;;;;;30.69;36.92;99994.33;102771;1293;61390;-83
2023/08/29 01:51:15;;;;;;;5.40;3.50;;;;;;;30.69;37.03;100001.42;102866;1291;61888;-81
2023/08/29 01:53:42;;;;;;;4.90;3.80;;;;;;;30.68;36.96;100006.15;102723;1289;61321;-81
2023/08/29 01:56:08;;;;;;;4.50;3.40;;;;;;;30.68;36.98;100006.14;102763;1294;61411;-81
2023/08/29 01:58:35;;;;;;;5.60;3.40;;;;;;;30.68;37.13;100008.53;102658;1291;61449;-81
2023/08/29 02:01:00;;;;;;;5.60;3.30;;;;;;;30.68;37.09;100013.80;102765;1296;61411;-81
2023/08/29 02:03:26;;;;;;;5.70;3.80;;;;;;;30.68;37.04;100010.92;102653;1298;61840;-80
2023/08/29 02:05:52;;;;;;;5.30;3.30;;;;;;;30.68;36.93;100010.34;102725;1291;62282;-82
2023/08/29 02:08:17;;;;;;;5.50;3.40;;;;;;;30.68;37.00;100006.77;102789;1291;62014;-81
2023/08/29 02:10:44;;;;;;;4.30;3.20;;;;;;;30.68;36.99;100005.14;102753;1291;61412;-81
2023/08/29 02:13:09;;;;;;;5.60;3.60;;;;;;;30.68;37.10;100005.84;102773;1296;66840;-81
2023/08/29 02:15:35;;;;;;;5.50;3.70;;;;;;;30.67;37.13;100008.11;102788;1291;61426;-81
2023/08/29 02:18:00;;;;;;;4.80;3.50;;;;;;;30.67;37.09;100006.98;102785;1291;61408;-81
2023/08/29 02:20:26;;;;;;;5.40;3.30;;;;;;;30.67;37.02;100001.27;102706;1291;61399;-81
2023/08/29 02:22:51;;;;;;;4.60;3.50;;;;;;;30.67;37.05;100001.94;102769;1294;62320;-81
2023/08/29 02:25:17;;;;;;;6.00;3.50;;;;;;;30.67;37.12;100000.68;102678;1291;66026;-81
2023/08/29 02:27:42;;;;;;;4.70;3.60;;;;;;;30.67;37.05;100000.31;102761;1291;61308;-81
2023/08/29 02:30:10;;;;;;;7.30;3.70;;;;;;;30.67;37.05;99997.79;102786;1290;61842;-81
2023/08/29 02:32:37;;;;;;;6.50;3.60;;;;;;;30.67;37.19;99995.83;102727;1290;61473;-81
2023/08/29 02:35:03;;;;;;;4.80;3.60;;;;;;;30.67;37.11;99999.46;102836;1296;61422;-82
2023/08/29 02:37:29;;;;;;;5.90;3.70;;;;;;;30.67;37.19;99998.21;102927;1291;61373;-82
2023/08/29 02:39:56;;;;;;;6.50;3.60;;;;;;;30.66;37.14;100004.08;102723;1291;61274;-81
2023/08/29 02:42:21;;;;;;;5.60;3.40;;;;;;;30.67;37.15;100006.89;102776;1291;62608;-82
2023/08/29 02:44:47;;;;;;;6.90;3.60;;;;;;;30.67;37.09;100001.81;102711;1293;61402;-83
2023/08/29 02:47:13;;;;;;;5.30;3.80;;;;;;;30.67;37.04;99999.84;102770;1293;61992;-83
2023/08/29 02:49:39;;;;;;;5.30;3.70;;;;;;;30.66;37.17;99996.77;102775;1291;61468;-83
2023/08/29 02:52:05;;;;;;;5.40;3.30;;;;;;;30.66;37.16;99999.17;102747;1294;61410;-81
2023/08/29 02:54:31;;;;;;;5.40;3.60;;;;;;;30.66;37.14;99996.31;102757;1290;64912;-82
2023/08/29 02:56:56;;;;;;;4.30;3.30;;;;;;;30.66;37.10;99993.21;103049;1293;61393;-82
2023/08/29 02:59:23;;;;;;;5.00;3.50;;;;;;;30.66;37.04;99993.42;102762;1291;61413;-82
2023/08/29 03:01:49;;;;;;;5.10;3.70;;;;;;;30.66;37.14;99996.35;102699;1291;62290;-82
2023/08/29 03:04:15;;;;;;;5.90;3.70;;;;;;;30.65;37.20;99992.92;102725;1291;61956;-81
2023/08/29 03:06:41;;;;;;;5.40;3.50;;;;;;;30.65;37.09;99994.96;102750;1293;61711;-82
2023/08/29 03:09:07;;;;;;;6.20;3.60;;;;;;;30.66;37.12;99991.07;102802;1291;62447;-82
2023/08/29 03:11:33;;;;;;;5.90;3.60;;;;;;;30.65;37.12;99982.05;102721;1291;61389;-82
2023/08/29 03:13:58;;;;;;;5.80;3.60;;;;;;;30.65;37.23;99979.54;102752;1291;61449;-82
2023/08/29 03:16:24;;;;;;;4.50;3.70;;;;;;;30.64;37.07;99977.41;102785;1291;61992;-82
2023/08/29 03:18:50;;;;;;;5.10;3.50;;;;;;;30.64;37.22;99972.20;102759;1293;62535;-82
2023/08/29 03:21:15;;;;;;;6.10;3.80;;;;;;;30.65;37.20;99969.61;102719;1289;61373;-82
2023/08/29 03:23:41;;;;;;;6.20;3.50;;;;;;;30.65;37.20;99970.86;102721;1291;61829;-82
2023/08/29 03:26:07;;;;;;;6.30;3.60;;;;;;;30.64;37.11;99973.64;102767;1296;62283;-82
2023/08/29 03:28:34;;;;;;;5.30;3.50;;;;;;;30.64;37.19;99974.05;102778;1293;61363;-82
2023/08/29 03:31:14;;;;;;;5.40;3.70;;;;;;;30.64;37.20;99973.17;102659;1296;62339;-82
2023/08/29 03:33:40;;;;;;;5.10;3.60;;;;;;;30.63;37.13;99970.10;102650;1290;62188;-82
2023/08/29 03:36:05;;;;;;;5.30;3.80;;;;;;;30.64;37.25;99969.73;102703;1297;61381;-82
2023/08/29 03:38:33;;;;;;;5.40;3.60;;;;;;;30.63;37.17;99967.38;102700;1291;62563;-82
2023/08/29 03:40:59;;;;;;;5.80;3.80;;;;;;;30.63;37.08;99966.66;102742;1291;66801;-82
2023/08/29 03:43:30;;;;;;;5.30;3.40;;;;;;;30.64;37.05;99964.27;102763;1291;61347;-82
2023/08/29 03:46:04;;;;;;;5.20;3.80;;;;;;;30.63;37.20;99964.14;102837;1291;61315;-82
2023/08/29 03:48:30;;;;;;;5.60;3.30;;;;;;;30.63;37.20;99966.73;102805;1293;63902;-82
2023/08/29 03:51:02;;;;;;;5.30;3.80;;;;;;;30.63;37.17;99969.26;102769;1291;62582;-82
2023/08/29 03:53:28;;;;;;;6.00;3.70;;;;;;;30.63;37.20;99967.80;102692;1295;61972;-82
2023/08/29 03:55:54;;;;;;;5.10;3.60;;;;;;;30.63;37.23;99973.45;102711;1291;62320;-82
2023/08/29 03:58:19;;;;;;;7.20;4.00;;;;;;;30.63;37.40;99970.56;102848;1293;61517;-82
2023/08/29 04:00:45;;;;;;;6.50;3.80;;;;;;;30.62;37.18;99967.32;102739;1290;62499;-82
2023/08/29 04:03:10;;;;;;;5.80;3.80;;;;;;;30.63;37.17;99967.80;102801;1293;61337;-82
2023/08/29 04:05:37;;;;;;;5.90;3.60;;;;;;;30.63;37.13;99965.07;102868;1291;61948;-82
2023/08/29 04:08:06;;;;;;;6.60;4.00;;;;;;;30.63;37.19;99968.34;102825;1291;61416;-83
2023/08/29 04:10:41;;;;;;;6.80;3.60;;;;;;;30.63;37.16;99965.82;102769;1294;63930;-80
2023/08/29 04:13:06;;;;;;;4.90;3.60;;;;;;;30.63;37.18;99968.88;102720;1291;66708;-81
2023/08/29 04:15:35;;;;;;;5.40;3.40;;;;;;;30.63;37.16;99964.35;103001;1295;61490;-82
2023/08/29 04:18:03;;;;;;;4.70;3.60;;;;;;;30.63;37.32;99967.05;103012;1291;61335;-81
2023/08/29 04:20:29;;;;;;;6.60;4.10;;;;;;;30.63;37.22;99967.21;102734;1291;64060;-81
2023/08/29 04:22:55;;;;;;;5.00;3.90;;;;;;;30.64;37.16;99972.08;102646;1289;61784;-81
2023/08/29 04:25:21;;;;;;;6.40;4.10;;;;;;;30.64;37.28;99971.90;102656;1291;61453;-82
2023/08/29 04:27:48;;;;;;;5.10;3.70;;;;;;;30.63;37.21;99971.20;102770;1291;62121;-82
2023/08/29 04:30:13;;;;;;;4.80;3.50;;;;;;;30.63;37.14;99971.73;102739;1292;62393;-81
2023/08/29 04:32:39;;;;;;;8.80;4.30;;;;;;;30.63;37.12;99968.37;102714;1304;61436;-81
2023/08/29 04:35:06;;;;;;;8.10;4.10;;;;;;;30.63;37.10;99970.02;102780;1291;61408;-81
2023/08/29 04:37:32;;;;;;;7.80;4.00;;;;;;;30.62;36.92;99969.34;102712;1295;61432;-81
2023/08/29 04:39:58;;;;;;;6.30;4.20;;;;;;;30.62;36.84;99968.28;102989;1295;61421;-81
2023/08/29 04:42:24;;;;;;;6.70;4.10;;;;;;;30.62;36.84;99967.02;102704;1291;62383;-81
2023/08/29 04:44:51;;;;;;;7.90;3.50;;;;;;;30.61;36.73;99964.76;102715;1296;61425;-81
2023/08/29 04:47:16;;;;;;;7.10;3.80;;;;;;;30.61;36.65;99965.84;102734;1291;61395;-81
2023/08/29 04:49:43;;;;;;;7.80;4.30;;;;;;;30.62;36.67;99966.17;102703;1291;62452;-81
2023/08/29 04:52:08;;;;;;;8.30;4.30;;;;;;;30.60;36.56;99967.80;102684;1289;61302;-81
2023/08/29 04:54:34;;;;;;;5.60;4.00;;;;;;;30.60;36.42;99967.60;102749;1297;61875;-81
2023/08/29 04:57:01;;;;;;;9.10;4.50;;;;;;;30.60;36.54;99969.07;102731;1293;61416;-81
2023/08/29 04:59:26;;;;;;;6.60;3.80;;;;;;;30.59;36.38;99970.39;102987;1293;62095;-82
2023/08/29 05:01:52;;;;;;;7.50;4.00;;;;;;;30.59;36.33;99967.88;102711;1291;61734;-81
2023/08/29 05:04:17;;;;;;;6.80;4.10;;;;;;;30.58;36.33;99967.61;102742;1291;62246;-81
2023/08/29 05:06:43;;;;;;;7.00;4.10;;;;;;;30.58;36.16;99968.88;102788;1291;61834;-81
2023/08/29 05:09:09;;;;;;;13.10;4.60;;;;;;;30.57;36.14;99968.66;102918;1295;61405;-81
2023/08/29 05:11:35;;;;;;;8.00;4.70;;;;;;;30.58;36.10;99968.99;102689;1296;61456;-81
2023/08/29 05:14:00;;;;;;;8.00;4.40;;;;;;;30.57;36.09;99968.11;103014;1291;61756;-81
2023/08/29 05:16:27;;;;;;;6.20;4.10;;;;;;;30.57;35.86;99972.65;102773;1293;61397;-81
2023/08/29 05:18:53;;;;;;;9.00;4.10;;;;;;;30.57;35.91;99971.58;102808;1293;61422;-81
2023/08/29 05:21:18;;;;;;;8.40;4.30;;;;;;;30.57;35.90;99971.01;102730;1291;61427;-81
2023/08/29 05:23:44;;;;;;;9.60;4.60;;;;;;;30.58;35.67;99970.42;102983;1293;61279;-81
2023/08/29 05:26:09;;;;;;;9.70;4.50;;;;;;;30.58;35.66;99967.69;103045;1289;61447;-81
2023/08/29 05:28:35;;;;;;;8.40;4.50;;;;;;;30.58;35.78;99966.73;103080;1293;61465;-81
2023/08/29 05:31:00;;;;;;;9.00;4.50;;;;;;;30.58;35.76;99965.06;102897;1290;61404;-81
2023/08/29 05:33:26;;;;;;;8.90;4.70;;;;;;;30.58;35.73;99965.60;103277;1293;62494;-81
2023/08/29 05:35:51;;;;;;;9.50;4.40;;;;;;;30.59;35.63;99965.14;103122;1294;61449;-81
2023/08/29 05:38:17;;;;;;;11.40;4.30;;;;;;;30.59;35.62;99965.90;103065;1291;61366;-81
2023/08/29 05:40:42;;;;;;;7.50;4.70;;;;;;;30.60;35.56;99968.35;103129;1296;63597;-81
2023/08/29 05:43:08;;;;;;;11.30;4.60;;;;;;;30.60;35.57;99970.48;102814;1297;61392;-81
2023/08/29 05:45:33;;;;;;;7.60;4.40;;;;;;;30.61;35.53;99972.58;103232;1296;61368;-82
2023/08/29 05:47:59;;;;;;;10.10;5.00;;;;;;;30.62;35.50;99973.22;102994;1291;61310;-81
2023/08/29 05:50:24;;;;;;;10.60;4.90;;;;;;;30.62;35.46;99972.64;102848;1296;61467;-81
2023/08/29 05:52:51;;;;;;;7.00;4.60;;;;;;;30.63;35.44;99974.13;102892;1292;61399;-81
2023/08/29 05:55:18;;;;;;;10.50;4.70;;;;;;;30.64;35.40;99969.73;102851;1291;61362;-82
2023/08/29 05:57:43;;;;;;;6.80;4.20;;;;;;;30.64;35.45;99966.39;103033;1294;61891;-81
2023/08/29 06:00:13;;;;;;;8.20;4.40;;;;;;;30.64;35.50;99966.17;103110;1289;62311;-81
2023/08/29 06:02:39;;;;;;;7.40;4.40;;;;;;;30.65;35.40;99968.86;103185;1290;343709;-81
2023/08/29 06:05:06;;;;;;;9.60;4.90;;;;;;;30.66;35.39;99961.10;102810;1297;61377;-81
2023/08/29 06:07:33;;;;;;;9.30;4.10;;;;;;;30.66;35.38;99961.77;102873;1292;61404;-81
2023/08/29 06:09:59;;;;;;;8.60;4.60;;;;;;;30.67;35.29;99959.20;103162;1296;61343;-81
2023/08/29 06:12:25;;;;;;;10.00;4.90;;;;;;;30.67;35.25;99964.27;103258;1295;61398;-81
2023/08/29 06:14:51;;;;;;;8.20;4.50;;;;;;;30.66;35.24;99965.02;103241;1293;62603;-82
2023/08/29 06:17:17;;;;;;;11.10;4.90;;;;;;;30.67;35.22;99968.20;102949;1293;61396;-81
2023/08/29 06:19:42;;;;;;;9.80;4.70;;;;;;;30.68;35.12;99966.51;102994;1296;61357;-81
2023/08/29 06:22:08;;;;;;;8.70;4.80;;;;;;;30.67;35.28;99966.33;103077;1295;61431;-82
2023/08/29 06:24:33;;;;;;;8.00;4.50;;;;;;;30.67;35.05;99962.17;102934;1290;61373;-82
2023/08/29 06:26:59;;;;;;;7.40;4.20;;;;;;;30.68;35.06;99962.65;103266;1295;62325;-82
2023/08/29 06:29:25;;;;;;;9.20;4.60;;;;;;;30.68;35.03;99959.13;102959;1289;61771;-82
2023/08/29 06:31:50;;;;;;;6.60;4.20;;;;;;;30.69;35.16;99959.60;103259;1297;61477;-82
2023/08/29 06:34:16;;;;;;;8.70;4.60;;;;;;;30.70;35.04;99957.16;103280;1292;63702;-83
2023/08/29 06:36:41;;;;;;;10.70;4.40;;;;;;;30.70;35.07;99952.91;103282;1296;61401;-83
2023/08/29 06:39:08;;;;;;;7.40;4.40;;;;;;;30.70;34.94;99949.94;103012;1290;74264;-83
2023/08/29 06:41:34;;;;;;;7.80;4.60;;;;;;;30.71;35.16;99950.02;103106;1296;61931;-83
2023/08/29 06:43:59;;;;;;;9.30;4.70;;;;;;;30.71;35.14;99951.50;103343;1290;61387;-81
2023/08/29 06:46:25;;;;;;;7.50;4.90;;;;;;;30.73;35.06;99956.02;103354;1293;61305;-81
2023/08/29 06:48:50;;;;;;;9.00;4.80;;;;;;;30.73;34.97;99957.92;103094;1297;62420;-81
2023/08/29 06:51:16;;;;;;;10.50;4.80;;;;;;;30.74;34.92;99956.96;103215;1294;61415;-82
2023/08/29 06:53:41;;;;;;;9.60;4.70;;;;;;;30.74;34.83;99955.42;103265;1296;61405;-82
2023/08/29 06:56:07;;;;;;;7.70;4.90;;;;;;;30.76;34.93;99953.84;103030;1297;62644;-82
2023/08/29 06:58:33;;;;;;;9.30;4.70;;;;;;;30.76;34.86;99957.20;103190;1295;61302;-81
2023/08/29 07:00:58;;;;;;;8.20;4.90;;;;;;;30.76;34.76;99953.92;103352;1297;61418;-82
2023/08/29 07:03:24;;;;;;;8.30;5.00;;;;;;;30.78;34.69;99953.90;103609;1293;63504;-82
2023/08/29 07:05:49;;;;;;;10.40;4.80;;;;;;;30.79;34.67;99954.36;103575;1290;61390;-83
2023/08/29 07:08:15;;;;;;;8.60;5.00;;;;;;;30.80;34.67;99955.71;103425;1296;61371;-82
2023/08/29 07:10:41;;;;;;;10.00;5.00;;;;;;;30.81;34.65;99953.88;102865;1292;61926;-81
2023/08/29 07:13:06;;;;;;;8.50;4.90;;;;;;;30.82;34.61;99948.95;103202;1294;61404;-82
2023/08/29 07:15:32;;;;;;;8.70;4.60;;;;;;;30.83;34.59;99949.88;102942;1290;61351;-82
2023/08/29 07:17:57;;;;;;;7.80;4.80;;;;;;;30.83;34.44;99944.19;102989;1289;62106;-82
2023/08/29 07:20:24;;;;;;;10.60;4.70;;;;;;;30.84;34.51;99946.67;103088;1295;61397;-82
2023/08/29 07:22:49;;;;;;;9.80;4.80;;;;;;;30.84;34.51;99946.30;103043;1289;61472;-82
2023/08/29 07:25:17;;;;;;;7.70;4.70;;;;;;;30.84;34.42;99947.09;103100;1289;62413;-82
2023/08/29 07:27:43;;;;;;;10.50;4.80;;;;;;;30.85;34.40;99947.64;103223;1289;62217;-81
2023/08/29 07:30:14;;;;;;;8.50;4.70;;;;;;;30.85;34.39;99947.92;102989;1290;61397;-82
2023/08/29 07:32:42;;;;;;;9.40;4.90;;;;;;;30.86;34.42;99951.88;103188;1297;62917;-82
2023/08/29 07:35:08;;;;;;;8.10;4.90;;;;;;;30.85;34.33;99947.14;103041;1291;65710;-82
2023/08/29 07:37:33;;;;;;;9.00;4.90;;;;;;;30.86;34.31;99944.14;103232;1290;61304;-82
2023/08/29 07:39:59;;;;;;;7.80;4.80;;;;;;;30.87;34.35;99940.27;103272;1290;61464;-82
2023/08/29 07:42:24;;;;;;;9.50;4.90;;;;;;;30.88;34.34;99937.98;103178;1292;63630;-81
2023/08/29 07:44:50;;;;;;;8.40;4.40;;;;;;;30.88;34.23;99939.23;103387;1291;61390;-82
2023/08/29 07:47:16;;;;;;;8.70;5.30;;;;;;;30.88;34.18;99936.64;103152;1290;61386;-82
2023/08/29 07:49:42;;;;;;;9.40;4.90;;;;;;;30.88;34.08;99936.81;103491;1292;61893;-82
2023/08/29 07:52:08;;;;;;;7.90;5.10;;;;;;;30.88;34.12;99936.06;103870;1289;61328;-82
2023/08/29 07:54:33;;;;;;;7.60;4.90;;;;;;;30.89;34.13;99933.21;103080;1290;61469;-82
2023/08/29 07:56:59;;;;;;;14.40;5.60;;;;;;;30.90;34.15;99924.97;103097;1299;62026;-82
2023/08/29 07:59:24;;;;;;;8.10;4.70;;;;;;;30.91;34.01;99925.77;103246;1291;61326;-82
2023/08/29 08:01:50;;;;;;;10.10;5.20;;;;;;;30.91;33.99;99922.51;103215;1291;62155;-83
2023/08/29 08:04:15;;;;;;;7.00;4.90;;;;;;;30.91;33.88;99919.91;103143;1290;61390;-82
2023/08/29 08:06:41;;;;;;;9.00;5.30;;;;;;;30.92;33.77;99919.45;103309;1289;60730;-83
2023/08/29 08:09:08;;;;;;;10.50;5.80;;;;;;;30.92;33.81;99916.17;103385;1289;61391;-83
2023/08/29 08:11:33;;;;;;;11.10;5.20;;;;;;;30.92;33.64;99913.36;103326;1289;61390;-83
2023/08/29 08:13:59;;;;;;;8.10;4.70;;;;;;;30.93;33.71;99913.12;103663;1292;61991;-83
2023/08/29 08:16:24;;;;;;;13.20;5.30;;;;;;;30.94;33.63;99910.65;103462;1297;62587;-82
2023/08/29 08:18:50;;;;;;;12.50;5.20;;;;;;;30.95;33.43;99906.52;103259;1291;64044;-83
2023/08/29 08:21:15;;;;;;;7.80;4.60;;;;;;;30.96;33.34;99903.52;103367;1298;61469;-83
2023/08/29 08:23:41;;;;;;;11.20;5.00;;;;;;;30.97;33.26;99903.59;103637;1289;62563;-82
2023/08/29 08:26:06;;;;;;;10.80;5.00;;;;;;;30.97;33.23;99897.94;103253;1291;61881;-82
2023/08/29 08:28:34;;;;;;;9.50;5.20;;;;;;;30.99;33.19;99901.73;103144;1291;61401;-82
2023/08/29 08:31:00;;;;;;;9.90;4.80;;;;;;;30.99;33.04;99897.88;103190;1293;64958;-82
2023/08/29 08:33:26;;;;;;;10.60;5.10;;;;;;;31.00;33.09;99892.89;103389;1291;62605;-82
2023/08/29 08:35:52;;;;;;;8.60;4.70;;;;;;;31.00;33.12;99892.13;103648;1296;61497;-82
2023/08/29 08:38:18;;;;;;;12.50;5.40;;;;;;;30.99;33.02;99889.45;103070;1291;61831;-82
2023/08/29 08:40:43;;;;;;;9.30;4.80;;;;;;;31.00;33.08;99887.94;103182;1293;61399;-82
2023/08/29 08:43:10;;;;;;;10.70;4.80;;;;;;;31.00;33.01;99885.69;103161;1291;61397;-82
2023/08/29 08:45:39;;;;;;;10.60;4.90;;;;;;;31.01;33.01;99885.61;103378;1291;61495;-82
2023/08/29 08:48:05;;;;;;;;;;;;;;;31.01;32.94;99883.42;103272;1291;61430;-82
2023/08/29 08:50:31;;;;;;;12.10;5.40;;;;;;;31.00;32.96;99878.48;103295;1295;61289;-82
2023/08/29 08:52:57;;;;;;;8.20;4.90;;;;;;;31.00;32.93;99880.31;103328;1294;61385;-82
2023/08/29 08:55:23;;;;;;;10.90;5.00;;;;;;;31.00;32.95;99880.98;102920;1291;61356;-82
2023/08/29 08:57:50;;;;;;;12.20;5.80;;;;;;;31.01;32.97;99872.68;102835;1290;61414;-82
2023/08/29 09:00:16;;;;;;;11.50;5.70;;;;;;;31.01;33.05;99874.66;102928;1291;61389;-82
2023/08/29 09:02:43;;;;;;;9.30;5.50;;;;;;;31.01;33.04;99880.16;102866;1289;61442;-82
2023/08/29 09:05:08;;;;;;;7.70;5.60;;;;;;;31.01;33.10;99867.48;103136;1291;61439;-82
2023/08/29 09:07:41;;;;;;;9.50;6.10;;;;;;;31.01;33.12;99869.30;102882;1293;61733;-82
2023/08/29 09:10:11;;;;;;;9.40;5.20;;;;;;;31.00;33.09;99872.05;102993;1296;66119;-82
2023/08/29 09:12:46;;;;;;;10.40;5.70;;;;;;;31.01;32.99;99870.21;102970;1291;65862;-82
2023/08/29 09:15:12;;;;;;;12.00;5.70;;;;;;;31.00;33.00;99866.27;102946;1291;61683;-81
2023/08/29 09:17:44;;;;;;;12.40;5.70;;;;;;;31.01;33.04;99860.56;103211;1291;61430;-82
2023/08/29 09:20:10;;;;;;;9.80;6.00;;;;;;;31.02;33.01;99855.30;103191;1291;63808;-82
2023/08/29 09:22:35;;;;;;;12.20;5.60;;;;;;;31.02;32.96;99846.34;102821;1296;61387;-82
2023/08/29 09:25:02;;;;;;;7.50;5.50;;;;;;;31.04;32.88;99844.23;103206;1291;61703;-82
2023/08/29 09:27:28;;;;;;;14.40;7.00;;;;;;;31.03;32.97;99846.05;103645;1291;61614;-82
2023/08/29 09:30:06;;;;;;;9.50;6.10;;;;;;;31.04;32.92;99845.94;103150;1296;61468;-82
2023/08/29 09:32:32;;;;;;;10.50;6.30;;;;;;;31.04;33.04;99841.92;103163;1291;65856;-82
2023/08/29 09:34:58;;;;;;;11.10;6.10;;;;;;;31.04;33.02;99844.14;103177;1291;61317;-82
2023/08/29 09:37:24;;;;;;;9.20;6.40;;;;;;;31.05;32.96;99841.90;102888;1292;63014;-82
2023/08/29 09:39:50;;;;;;;10.20;5.70;;;;;;;31.05;32.96;99836.77;103108;1297;61411;-82
2023/08/29 09:42:16;;;;;;;7.70;5.50;;;;;;;31.05;32.93;99838.52;102901;1291;61376;-81
2023/08/29 09:44:42;;;;;;;7.90;5.60;;;;;;;31.05;33.00;99835.98;103040;1290;61714;-82
2023/08/29 09:47:11;;;;;;;10.80;5.70;;;;;;;31.05;33.03;99835.64;103355;1290;61395;-82
2023/08/29 09:49:45;;;;;;;9.40;6.00;;;;;;;31.04;32.97;99837.73;103026;1291;61375;-81
2023/08/29 09:52:11;;;;;;;9.50;6.00;;;;;;;31.04;33.08;99836.92;103111;1293;65618;-81
2023/08/29 09:54:43;;;;;;;12.30;6.60;;;;;;;31.04;33.05;99832.70;103181;1291;62116;-81
2023/08/29 09:57:09;;;;;;;6.80;5.20;;;;;;;31.04;33.09;99831.81;103064;1293;61453;-81
2023/08/29 09:59:35;;;;;;;13.20;5.90;;;;;;;31.04;33.13;99833.30;103446;1293;61399;-82
2023/08/29 10:02:01;;;;;;;9.70;6.20;;;;;;;31.04;33.22;99828.92;102947;1293;62598;-82
2023/08/29 10:04:26;;;;;;;13.00;6.30;;;;;;;31.05;33.27;99831.19;103188;1290;61282;-82
2023/08/29 10:06:52;;;;;;;10.00;6.50;;;;;;;31.05;33.05;99833.38;102975;1291;62632;-82
2023/08/29 10:09:19;;;;;;;6.50;4.90;;;;;;;31.04;33.15;99831.77;102998;1294;61460;-82
2023/08/29 10:11:44;;;;;;;8.30;5.20;;;;;;;31.04;33.19;99822.02;103157;1290;63954;-82
2023/08/29 10:14:10;;;;;;;7.50;5.40;;;;;;;31.04;33.28;99820.74;103204;1297;62090;-81
2023/08/29 10:16:36;;;;;;;9.00;5.30;;;;;;;31.04;33.38;99814.96;103313;1289;61437;-81
2023/08/29 10:19:02;;;;;;;6.10;5.30;;;;;;;31.03;33.30;99815.41;103080;1291;61319;-81
2023/08/29 10:21:28;;;;;;;9.60;5.70;;;;;;;31.03;33.44;99810.84;103270;1291;61418;-82
2023/08/29 10:23:53;;;;;;;10.20;6.30;;;;;;;31.03;33.48;99813.73;102873;1291;61325;-82
2023/08/29 10:26:19;;;;;;;7.90;5.40;;;;;;;31.04;33.44;99813.15;102881;1291;66766;-82
2023/08/29 10:28:46;;;;;;;12.20;6.00;;;;;;;31.04;33.29;99813.86;103309;1292;61652;-82
2023/08/29 10:31:11;;;;;;;9.70;6.70;;;;;;;31.03;33.31;99813.17;103413;1296;61471;-82
2023/08/29 10:33:37;;;;;;;6.60;5.20;;;;;;;31.03;33.38;99804.08;103230;1292;61300;-82
2023/08/29 10:36:03;;;;;;;9.10;5.70;;;;;;;31.03;33.44;99800.81;102949;1293;61445;-82
2023/08/29 10:38:30;;;;;;;12.60;6.60;;;;;;;31.03;33.43;99795.95;103131;1293;61342;-82
2023/08/29 10:41:09;;;;;;;14.50;6.40;;;;;;;31.03;33.50;99801.40;103476;1293;61527;-82
2023/08/29 10:43:35;;;;;;;8.40;5.80;;;;;;;31.03;33.15;99795.23;103430;1292;63899;-82
2023/08/29 10:46:16;;;;;;;10.40;6.30;;;;;;;31.03;33.17;99799.56;103644;1296;61376;-82
2023/08/29 10:48:42;;;;;;;14.00;6.40;;;;;;;31.02;33.22;99805.50;103480;1294;61634;-82
2023/08/29 10:51:08;;;;;;;11.80;5.60;;;;;;;31.03;33.15;99801.61;103278;1291;61418;-82
2023/08/29 10:53:49;;;;;;;8.20;5.50;;;;;;;31.04;33.05;99796.09;103300;1293;61278;-82
2023/08/29 10:56:17;;;;;;;8.10;5.90;;;;;;;31.04;33.08;99792.79;103009;1295;66923;-83
2023/08/29 10:58:44;;;;;;;7.00;5.60;;;;;;;31.03;33.29;99797.34;103203;1292;61410;-83
2023/08/29 11:01:28;;;;;;;6.80;5.20;;;;;;;31.03;33.32;99788.98;103100;1295;61334;-83
2023/08/29 11:03:55;;;;;;;7.90;5.40;;;;;;;31.03;33.36;99794.70;103396;1294;63754;-81
2023/08/29 11:06:25;;;;;;;8.20;5.40;;;;;;;31.03;33.39;99793.94;103736;1293;65609;-81
2023/08/29 11:08:50;;;;;;;6.70;5.20;;;;;;;31.03;33.57;99792.27;103178;1294;61508;-83
2023/08/29 11:11:22;;;;;;;7.60;5.90;;;;;;;31.04;33.65;99787.91;103248;1292;61785;-83
2023/08/29 11:14:02;;;;;;;8.50;5.80;;;;;;;31.04;33.75;99787.15;103242;1298;64052;-83
2023/08/29 11:16:35;;;;;;;8.50;5.10;;;;;;;31.04;33.80;99783.14;103236;1292;65832;-83
2023/08/29 11:19:11;;;;;;;9.30;5.60;;;;;;;31.04;33.80;99784.36;103162;1292;61347;-83